Danville, GA

12:18 AM EDT on September 15, 2014 (GMT -0400)
Cochran | Change Station
CLOSE
Current Station
Personal Weather Station
Location: Cochran, GA
Elevation: 0 ft
Nearby Weather Stations

Elev 0 ft 32.36 °N, 83.38 °W | Updated 2 minutes ago

Overcast
Overcast
72.0 °F
Feels Like 72.0 °F
N
0.0
Wind Variable Wind from South

Today
High -- | Low -- °F
--% Chance of Precip.
Yesterday
High -- | Low -- °F
Precip. -- in
7:16 AM 7:39 PM
Waning Gibbous, 59% visible
Pressure 30.19 in
Visibility 10.0 miles
Clouds Overcast 700 ft
Dew Point 71 °F
Humidity 98%
Rainfall 0.00 in
Snow Depth Not available.
UV 0 out of 12
Pollen 7.70 out of 12
Air Quality Not available.
Flu Activity Not available.
METAR KWRB 150358Z AUTO 04004KT 10SM OVC007 23/21 A3019 RMK AO2 SLP223 T02280213

More Conditions Fewer Conditions

Pressure 30.19 in
Visibility 10.0 miles
Clouds Overcast 700 ft
Dew Point 71 °F
Humidity 98%
Rainfall 0.00 in
Snow Depth Not available.
UV 0 out of 12
Pollen 7.70 out of 12
Air Quality Not available.
Flu Activity Not available.
METAR KWRB 150358Z AUTO 04004KT 10SM OVC007 23/21 A3019 RMK AO2 SLP223 T02280213

More Conditions Fewer Conditions

10-Day Weather Forecast

Almanac

Astronomy

Sep. 15, 2014 Rise Set
Actual Time 7:16 AM EDT 7:39 PM EDT
Civil Twilight 6:52 AM EDT 8:03 PM EDT
Nautical Twilight 6:23 AM EDT 8:32 PM EDT
Astronomical Twilight 5:53 AM EDT 9:01 PM EDT
Moon No Moon Rise 1:56 PM EDT
Length of Visible Light 13h 11m
Length of Day
12h 22m
Tomorrow will be 1m 59s shorter.
Waning Gibbous, 59% of the Moon is Illuminated
Today
Waning Gibbous
Sep 15
Last Quarter
Sep 24
New
Oct 1
First Quarter
Oct 8
Full

Yesterday's Extremes

State Highs State Lows

Community

WunderPhotos

Upload Photos

1,753,399 photos uploaded!

Nearby

Air Quality

  Air Quality AQ Index Pollutant
Sunday Good
OZONE
Monday Good
OZONE

Snow Depth

Station Depth Elevation
No new snow has been reported.

Earthquake Activity

City Distance Mag. Time & Date
No recent earthquake activity has been reported nearby.
Minimum magnitude displayed is 2.5.

Coastal Water Temperatures

Place Temperature
No Stations Reporting

Nearby Weather Stations